sensor_id;sensor_type;location;lat;lon;timestamp;temperature;humidity
21830;DHT22;11077;50.264;6.798;2022-07-29T00:01:19;16.60;99.90
21830;DHT22;11077;50.264;6.798;2022-07-29T00:03:46;16.50;99.90
21830;DHT22;11077;50.264;6.798;2022-07-29T00:06:15;16.50;99.90
21830;DHT22;11077;50.264;6.798;2022-07-29T00:08:42;16.50;99.90
21830;DHT22;11077;50.264;6.798;2022-07-29T00:11:09;16.40;99.90
21830;DHT22;11077;50.264;6.798;2022-07-29T00:13:37;16.40;99.90
21830;DHT22;11077;50.264;6.798;2022-07-29T00:16:04;16.40;99.90
21830;DHT22;11077;50.264;6.798;2022-07-29T00:18:31;16.30;99.90
21830;DHT22;11077;50.264;6.798;2022-07-29T00:20:58;16.30;99.90
21830;DHT22;11077;50.264;6.798;2022-07-29T00:23:27;16.20;99.90
21830;DHT22;11077;50.264;6.798;2022-07-29T00:25:54;16.20;99.90
21830;DHT22;11077;50.264;6.798;2022-07-29T00:28:21;16.20;99.90
21830;DHT22;11077;50.264;6.798;2022-07-29T00:30:49;16.20;99.90
21830;DHT22;11077;50.264;6.798;2022-07-29T00:33:16;16.20;99.90
21830;DHT22;11077;50.264;6.798;2022-07-29T00:35:43;16.20;99.90
21830;DHT22;11077;50.264;6.798;2022-07-29T00:38:10;16.10;99.90
21830;DHT22;11077;50.264;6.798;2022-07-29T00:40:39;16.10;99.90
21830;DHT22;11077;50.264;6.798;2022-07-29T00:43:06;16.10;99.90
21830;DHT22;11077;50.264;6.798;2022-07-29T00:45:34;16.10;99.90
21830;DHT22;11077;50.264;6.798;2022-07-29T00:48:01;16.00;99.90
21830;DHT22;11077;50.264;6.798;2022-07-29T00:50:31;16.00;99.90
21830;DHT22;11077;50.264;6.798;2022-07-29T00:52:58;16.00;99.90
21830;DHT22;11077;50.264;6.798;2022-07-29T00:55:27;16.00;99.90
21830;DHT22;11077;50.264;6.798;2022-07-29T00:57:57;15.90;99.90
21830;DHT22;11077;50.264;6.798;2022-07-29T01:00:27;15.90;99.90
21830;DHT22;11077;50.264;6.798;2022-07-29T01:02:54;15.90;99.90
21830;DHT22;11077;50.264;6.798;2022-07-29T01:05:23;15.90;99.90
21830;DHT22;11077;50.264;6.798;2022-07-29T01:07:53;15.80;99.90
21830;DHT22;11077;50.264;6.798;2022-07-29T01:10:21;15.80;99.90
21830;DHT22;11077;50.264;6.798;2022-07-29T01:12:52;15.70;99.90
21830;DHT22;11077;50.264;6.798;2022-07-29T01:15:22;15.70;99.90
21830;DHT22;11077;50.264;6.798;2022-07-29T01:17:53;15.70;99.90
21830;DHT22;11077;50.264;6.798;2022-07-29T01:20:27;15.70;99.90
21830;DHT22;11077;50.264;6.798;2022-07-29T01:23:14;15.80;99.90
21830;DHT22;11077;50.264;6.798;2022-07-29T01:26:00;15.60;99.90
21830;DHT22;11077;50.264;6.798;2022-07-29T01:28:47;15.60;99.90
21830;DHT22;11077;50.264;6.798;2022-07-29T01:31:19;15.60;99.90
21830;DHT22;11077;50.264;6.798;2022-07-29T01:33:53;15.50;99.90
21830;DHT22;11077;50.264;6.798;2022-07-29T01:36:27;15.50;99.90
21830;DHT22;11077;50.264;6.798;2022-07-29T01:39:01;15.40;99.90
21830;DHT22;11077;50.264;6.798;2022-07-29T01:41:32;15.50;99.90
21830;DHT22;11077;50.264;6.798;2022-07-29T01:44:11;15.40;99.90
21830;DHT22;11077;50.264;6.798;2022-07-29T01:46:55;15.40;99.90
21830;DHT22;11077;50.264;6.798;2022-07-29T01:49:28;15.30;99.90
21830;DHT22;11077;50.264;6.798;2022-07-29T01:52:00;15.20;99.90
21830;DHT22;11077;50.264;6.798;2022-07-29T01:54:32;15.20;99.90
21830;DHT22;11077;50.264;6.798;2022-07-29T01:57:02;15.20;99.90
21830;DHT22;11077;50.264;6.798;2022-07-29T01:59:34;15.10;99.90
21830;DHT22;11077;50.264;6.798;2022-07-29T02:02:02;15.10;99.90
21830;DHT22;11077;50.264;6.798;2022-07-29T02:04:31;15.10;99.90
21830;DHT22;11077;50.264;6.798;2022-07-29T02:07:04;15.10;99.90
21830;DHT22;11077;50.264;6.798;2022-07-29T02:09:33;15.10;99.90
21830;DHT22;11077;50.264;6.798;2022-07-29T02:12:03;15.10;99.90
21830;DHT22;11077;50.264;6.798;2022-07-29T02:14:35;15.10;99.90
21830;DHT22;11077;50.264;6.798;2022-07-29T02:17:03;15.10;99.90
21830;DHT22;11077;50.264;6.798;2022-07-29T02:19:32;15.00;99.90
21830;DHT22;11077;50.264;6.798;2022-07-29T02:22:00;15.00;99.90
21830;DHT22;11077;50.264;6.798;2022-07-29T02:24:28;15.00;99.90
21830;DHT22;11077;50.264;6.798;2022-07-29T02:26:57;15.00;99.90
21830;DHT22;11077;50.264;6.798;2022-07-29T02:29:26;14.90;99.90
21830;DHT22;11077;50.264;6.798;2022-07-29T02:31:57;14.90;99.90
21830;DHT22;11077;50.264;6.798;2022-07-29T02:34:25;14.90;99.90
21830;DHT22;11077;50.264;6.798;2022-07-29T02:36:54;14.90;99.90
21830;DHT22;11077;50.264;6.798;2022-07-29T02:39:23;14.90;99.90
21830;DHT22;11077;50.264;6.798;2022-07-29T02:41:54;14.80;99.90
21830;DHT22;11077;50.264;6.798;2022-07-29T02:44:24;14.80;99.90
21830;DHT22;11077;50.264;6.798;2022-07-29T02:47:02;14.80;99.90
21830;DHT22;11077;50.264;6.798;2022-07-29T02:49:36;14.80;99.90
21830;DHT22;11077;50.264;6.798;2022-07-29T02:52:08;14.80;99.90
21830;DHT22;11077;50.264;6.798;2022-07-29T02:54:44;14.80;99.90
21830;DHT22;11077;50.264;6.798;2022-07-29T02:57:19;14.70;99.90
21830;DHT22;11077;50.264;6.798;2022-07-29T02:59:48;14.70;99.90
21830;DHT22;11077;50.264;6.798;2022-07-29T03:02:17;14.70;99.90
21830;DHT22;11077;50.264;6.798;2022-07-29T03:04:48;14.70;99.90
21830;DHT22;11077;50.264;6.798;2022-07-29T03:07:18;14.70;99.90
21830;DHT22;11077;50.264;6.798;2022-07-29T03:09:47;14.70;99.90
21830;DHT22;11077;50.264;6.798;2022-07-29T03:12:16;14.70;99.90
21830;DHT22;11077;50.264;6.798;2022-07-29T03:14:43;14.70;99.90
21830;DHT22;11077;50.264;6.798;2022-07-29T03:17:12;14.80;99.90
21830;DHT22;11077;50.264;6.798;2022-07-29T03:19:40;14.80;99.90
21830;DHT22;11077;50.264;6.798;2022-07-29T03:22:09;14.90;99.90
21830;DHT22;11077;50.264;6.798;2022-07-29T03:24:37;14.90;99.90
21830;DHT22;11077;50.264;6.798;2022-07-29T03:27:05;14.90;99.90
21830;DHT22;11077;50.264;6.798;2022-07-29T03:29:32;14.90;99.90
21830;DHT22;11077;50.264;6.798;2022-07-29T03:32:02;14.80;99.90
21830;DHT22;11077;50.264;6.798;2022-07-29T03:34:30;14.80;99.90
21830;DHT22;11077;50.264;6.798;2022-07-29T03:36:58;14.70;99.90
21830;DHT22;11077;50.264;6.798;2022-07-29T03:39:31;14.60;99.90
21830;DHT22;11077;50.264;6.798;2022-07-29T03:42:00;14.60;99.90
21830;DHT22;11077;50.264;6.798;2022-07-29T03:44:28;14.70;99.90
21830;DHT22;11077;50.264;6.798;2022-07-29T03:46:57;14.70;99.90
21830;DHT22;11077;50.264;6.798;2022-07-29T03:49:28;14.60;99.90
21830;DHT22;11077;50.264;6.798;2022-07-29T03:51:56;14.70;99.90
21830;DHT22;11077;50.264;6.798;2022-07-29T03:54:25;14.70;99.90
21830;DHT22;11077;50.264;6.798;2022-07-29T03:56:53;14.80;99.90
21830;DHT22;11077;50.264;6.798;2022-07-29T03:59:21;14.70;99.90
21830;DHT22;11077;50.264;6.798;2022-07-29T04:01:50;14.70;99.90
21830;DHT22;11077;50.264;6.798;2022-07-29T04:04:17;14.70;99.90
21830;DHT22;11077;50.264;6.798;2022-07-29T04:06:46;14.80;99.90
21830;DHT22;11077;50.264;6.798;2022-07-29T04:09:13;14.80;99.90
21830;DHT22;11077;50.264;6.798;2022-07-29T04:11:42;14.90;99.90
21830;DHT22;11077;50.264;6.798;2022-07-29T04:14:10;14.90;99.90
21830;DHT22;11077;50.264;6.798;2022-07-29T04:16:38;14.90;99.90
21830;DHT22;11077;50.264;6.798;2022-07-29T04:19:05;14.90;99.90
21830;DHT22;11077;50.264;6.798;2022-07-29T04:21:37;14.90;99.90
21830;DHT22;11077;50.264;6.798;2022-07-29T04:24:05;15.00;99.90
21830;DHT22;11077;50.264;6.798;2022-07-29T04:26:33;15.00;99.90
21830;DHT22;11077;50.264;6.798;2022-07-29T04:29:01;15.10;99.90
21830;DHT22;11077;50.264;6.798;2022-07-29T04:31:29;15.10;99.90
21830;DHT22;11077;50.264;6.798;2022-07-29T04:33:56;15.20;99.90
21830;DHT22;11077;50.264;6.798;2022-07-29T04:36:24;15.20;99.90
21830;DHT22;11077;50.264;6.798;2022-07-29T04:38:51;15.20;99.90
21830;DHT22;11077;50.264;6.798;2022-07-29T04:41:18;15.30;99.90
21830;DHT22;11077;50.264;6.798;2022-07-29T04:43:45;15.40;99.90
21830;DHT22;11077;50.264;6.798;2022-07-29T04:46:14;15.40;99.90
21830;DHT22;11077;50.264;6.798;2022-07-29T04:48:41;15.50;99.90
21830;DHT22;11077;50.264;6.798;2022-07-29T04:51:09;15.50;99.90
21830;DHT22;11077;50.264;6.798;2022-07-29T04:53:36;15.50;99.90
21830;DHT22;11077;50.264;6.798;2022-07-29T04:56:04;15.50;99.90
21830;DHT22;11077;50.264;6.798;2022-07-29T04:58:33;15.50;99.90
21830;DHT22;11077;50.264;6.798;2022-07-29T05:01:01;15.50;99.90
21830;DHT22;11077;50.264;6.798;2022-07-29T05:03:29;15.40;99.90
21830;DHT22;11077;50.264;6.798;2022-07-29T05:05:57;15.30;99.90
21830;DHT22;11077;50.264;6.798;2022-07-29T05:08:24;15.30;99.90
21830;DHT22;11077;50.264;6.798;2022-07-29T05:10:51;15.30;99.90
21830;DHT22;11077;50.264;6.798;2022-07-29T05:13:19;15.20;99.90
21830;DHT22;11077;50.264;6.798;2022-07-29T05:15:46;15.10;99.90
21830;DHT22;11077;50.264;6.798;2022-07-29T05:18:13;15.20;99.90
21830;DHT22;11077;50.264;6.798;2022-07-29T05:20:42;15.10;99.90
21830;DHT22;11077;50.264;6.798;2022-07-29T05:23:10;15.00;99.90
21830;DHT22;11077;50.264;6.798;2022-07-29T05:25:38;15.10;99.90
21830;DHT22;11077;50.264;6.798;2022-07-29T05:28:06;15.20;99.90
21830;DHT22;11077;50.264;6.798;2022-07-29T05:30:33;15.20;99.90
21830;DHT22;11077;50.264;6.798;2022-07-29T05:33:00;15.30;99.90
21830;DHT22;11077;50.264;6.798;2022-07-29T05:35:28;15.30;99.90
21830;DHT22;11077;50.264;6.798;2022-07-29T05:37:57;15.40;99.90
21830;DHT22;11077;50.264;6.798;2022-07-29T05:40:25;15.50;99.90
21830;DHT22;11077;50.264;6.798;2022-07-29T05:42:52;15.50;99.90
21830;DHT22;11077;50.264;6.798;2022-07-29T05:45:19;15.60;99.90
21830;DHT22;11077;50.264;6.798;2022-07-29T05:47:46;15.70;99.90
21830;DHT22;11077;50.264;6.798;2022-07-29T05:50:14;15.80;99.90
21830;DHT22;11077;50.264;6.798;2022-07-29T05:52:45;15.90;99.90
21830;DHT22;11077;50.264;6.798;2022-07-29T05:55:17;16.00;99.90
21830;DHT22;11077;50.264;6.798;2022-07-29T05:57:45;16.10;99.90
21830;DHT22;11077;50.264;6.798;2022-07-29T06:00:12;16.10;99.90
21830;DHT22;11077;50.264;6.798;2022-07-29T06:02:40;16.20;99.90
21830;DHT22;11077;50.264;6.798;2022-07-29T06:05:07;16.20;99.90
21830;DHT22;11077;50.264;6.798;2022-07-29T06:07:34;16.20;99.90
21830;DHT22;11077;50.264;6.798;2022-07-29T06:10:02;16.20;99.90
21830;DHT22;11077;50.264;6.798;2022-07-29T06:12:31;16.30;99.90
21830;DHT22;11077;50.264;6.798;2022-07-29T06:14:58;16.20;99.90
21830;DHT22;11077;50.264;6.798;2022-07-29T06:17:26;16.30;99.90
21830;DHT22;11077;50.264;6.798;2022-07-29T06:19:55;16.30;99.90
21830;DHT22;11077;50.264;6.798;2022-07-29T06:22:22;16.30;99.90
21830;DHT22;11077;50.264;6.798;2022-07-29T06:24:50;16.30;99.90
21830;DHT22;11077;50.264;6.798;2022-07-29T06:27:17;16.40;99.90
21830;DHT22;11077;50.264;6.798;2022-07-29T06:29:46;16.40;99.90
21830;DHT22;11077;50.264;6.798;2022-07-29T06:32:13;16.50;99.90
21830;DHT22;11077;50.264;6.798;2022-07-29T06:34:41;16.50;99.90
21830;DHT22;11077;50.264;6.798;2022-07-29T06:37:09;16.60;99.90
21830;DHT22;11077;50.264;6.798;2022-07-29T06:39:36;16.70;99.90
21830;DHT22;11077;50.264;6.798;2022-07-29T06:42:04;16.90;99.90
21830;DHT22;11077;50.264;6.798;2022-07-29T06:44:32;17.00;99.90
21830;DHT22;11077;50.264;6.798;2022-07-29T06:47:01;17.10;99.90
21830;DHT22;11077;50.264;6.798;2022-07-29T06:49:29;17.20;99.90
21830;DHT22;11077;50.264;6.798;2022-07-29T06:51:56;17.40;99.90
21830;DHT22;11077;50.264;6.798;2022-07-29T06:54:23;17.50;99.90
21830;DHT22;11077;50.264;6.798;2022-07-29T06:56:51;17.60;99.90
21830;DHT22;11077;50.264;6.798;2022-07-29T06:59:18;17.60;99.90
21830;DHT22;11077;50.264;6.798;2022-07-29T07:01:46;17.70;99.90
21830;DHT22;11077;50.264;6.798;2022-07-29T07:04:14;17.60;99.90
21830;DHT22;11077;50.264;6.798;2022-07-29T07:06:42;17.60;99.90
21830;DHT22;11077;50.264;6.798;2022-07-29T07:09:09;17.60;99.90
21830;DHT22;11077;50.264;6.798;2022-07-29T07:11:36;17.70;99.90
21830;DHT22;11077;50.264;6.798;2022-07-29T07:14:04;17.80;99.90
21830;DHT22;11077;50.264;6.798;2022-07-29T07:16:31;18.00;99.90
21830;DHT22;11077;50.264;6.798;2022-07-29T07:18:59;18.20;99.90
21830;DHT22;11077;50.264;6.798;2022-07-29T07:21:28;18.40;99.90
21830;DHT22;11077;50.264;6.798;2022-07-29T07:23:55;18.60;99.90
21830;DHT22;11077;50.264;6.798;2022-07-29T07:26:23;18.80;99.90
21830;DHT22;11077;50.264;6.798;2022-07-29T07:28:50;19.00;99.90
21830;DHT22;11077;50.264;6.798;2022-07-29T07:31:18;19.20;99.90
21830;DHT22;11077;50.264;6.798;2022-07-29T07:33:45;19.40;99.90
21830;DHT22;11077;50.264;6.798;2022-07-29T07:36:13;19.50;99.90
21830;DHT22;11077;50.264;6.798;2022-07-29T07:38:41;19.70;99.90
21830;DHT22;11077;50.264;6.798;2022-07-29T07:41:09;19.90;99.90
21830;DHT22;11077;50.264;6.798;2022-07-29T07:43:36;20.00;99.90
21830;DHT22;11077;50.264;6.798;2022-07-29T07:46:03;20.10;99.90
21830;DHT22;11077;50.264;6.798;2022-07-29T07:48:31;20.20;99.90
21830;DHT22;11077;50.264;6.798;2022-07-29T07:51:00;20.40;99.90
21830;DHT22;11077;50.264;6.798;2022-07-29T07:53:28;20.50;99.30
21830;DHT22;11077;50.264;6.798;2022-07-29T07:55:58;20.60;99.40
21830;DHT22;11077;50.264;6.798;2022-07-29T07:58:25;20.70;99.00
21830;DHT22;11077;50.264;6.798;2022-07-29T08:00:52;20.90;98.70
21830;DHT22;11077;50.264;6.798;2022-07-29T08:03:20;21.00;98.40
21830;DHT22;11077;50.264;6.798;2022-07-29T08:05:47;21.20;98.10
21830;DHT22;11077;50.264;6.798;2022-07-29T08:08:16;21.40;97.70
21830;DHT22;11077;50.264;6.798;2022-07-29T08:10:44;21.50;97.80
21830;DHT22;11077;50.264;6.798;2022-07-29T08:13:25;21.70;97.60
21830;DHT22;11077;50.264;6.798;2022-07-29T08:15:54;21.80;97.30
21830;DHT22;11077;50.264;6.798;2022-07-29T08:18:26;21.90;96.90
21830;DHT22;11077;50.264;6.798;2022-07-29T08:24:47;22.40;97.20
21830;DHT22;11077;50.264;6.798;2022-07-29T08:27:24;22.50;96.40
21830;DHT22;11077;50.264;6.798;2022-07-29T08:30:00;22.60;96.10
21830;DHT22;11077;50.264;6.798;2022-07-29T08:33:26;22.90;96.30
21830;DHT22;11077;50.264;6.798;2022-07-29T08:35:56;23.00;95.60
21830;DHT22;11077;50.264;6.798;2022-07-29T08:38:24;23.10;94.70
21830;DHT22;11077;50.264;6.798;2022-07-29T08:40:55;23.10;94.80
21830;DHT22;11077;50.264;6.798;2022-07-29T08:43:25;23.10;94.70
21830;DHT22;11077;50.264;6.798;2022-07-29T08:45:52;23.30;95.60
21830;DHT22;11077;50.264;6.798;2022-07-29T08:48:23;23.50;95.20
21830;DHT22;11077;50.264;6.798;2022-07-29T08:51:07;23.60;94.50
21830;DHT22;11077;50.264;6.798;2022-07-29T08:53:35;23.70;94.80
21830;DHT22;11077;50.264;6.798;2022-07-29T08:56:12;23.80;93.80
21830;DHT22;11077;50.264;6.798;2022-07-29T08:58:43;24.00;93.90
21830;DHT22;11077;50.264;6.798;2022-07-29T09:01:29;24.00;93.70
21830;DHT22;11077;50.264;6.798;2022-07-29T09:04:13;24.20;94.00
21830;DHT22;11077;50.264;6.798;2022-07-29T09:06:51;24.40;94.00
21830;DHT22;11077;50.264;6.798;2022-07-29T09:09:30;24.70;93.40
21830;DHT22;11077;50.264;6.798;2022-07-29T09:12:01;24.80;93.20
21830;DHT22;11077;50.264;6.798;2022-07-29T09:14:32;25.00;93.30
21830;DHT22;11077;50.264;6.798;2022-07-29T09:17:20;25.30;92.90
21830;DHT22;11077;50.264;6.798;2022-07-29T09:20:22;25.50;92.40
21830;DHT22;11077;50.264;6.798;2022-07-29T09:24:00;25.60;92.10
21830;DHT22;11077;50.264;6.798;2022-07-29T09:26:33;25.70;90.50
21830;DHT22;11077;50.264;6.798;2022-07-29T09:29:11;25.70;90.70
21830;DHT22;11077;50.264;6.798;2022-07-29T09:31:58;25.80;90.80
21830;DHT22;11077;50.264;6.798;2022-07-29T09:34:45;25.80;90.50
21830;DHT22;11077;50.264;6.798;2022-07-29T09:37:31;25.70;90.70
21830;DHT22;11077;50.264;6.798;2022-07-29T09:40:21;25.70;91.10
21830;DHT22;11077;50.264;6.798;2022-07-29T09:43:15;25.70;90.20
21830;DHT22;11077;50.264;6.798;2022-07-29T09:46:11;25.60;90.10
21830;DHT22;11077;50.264;6.798;2022-07-29T09:49:09;25.80;90.70
21830;DHT22;11077;50.264;6.798;2022-07-29T09:51:42;26.00;90.50
21830;DHT22;11077;50.264;6.798;2022-07-29T09:54:26;26.20;90.70
21830;DHT22;11077;50.264;6.798;2022-07-29T09:57:08;26.50;90.20
21830;DHT22;11077;50.264;6.798;2022-07-29T09:59:56;26.70;90.10
21830;DHT22;11077;50.264;6.798;2022-07-29T10:02:39;26.80;90.40
21830;DHT22;11077;50.264;6.798;2022-07-29T10:05:22;27.10;88.60
21830;DHT22;11077;50.264;6.798;2022-07-29T10:08:04;27.30;88.90
21830;DHT22;11077;50.264;6.798;2022-07-29T10:10:42;27.60;87.20
21830;DHT22;11077;50.264;6.798;2022-07-29T10:13:14;27.80;87.00
21830;DHT22;11077;50.264;6.798;2022-07-29T10:15:48;27.90;87.30
21830;DHT22;11077;50.264;6.798;2022-07-29T10:18:26;28.00;85.90
21830;DHT22;11077;50.264;6.798;2022-07-29T10:20:56;28.20;86.50
21830;DHT22;11077;50.264;6.798;2022-07-29T10:23:34;28.30;86.10
21830;DHT22;11077;50.264;6.798;2022-07-29T10:26:04;28.40;85.50
21830;DHT22;11077;50.264;6.798;2022-07-29T10:28:43;28.50;84.60
21830;DHT22;11077;50.264;6.798;2022-07-29T10:31:15;28.30;83.70
21830;DHT22;11077;50.264;6.798;2022-07-29T10:33:57;28.30;84.60
21830;DHT22;11077;50.264;6.798;2022-07-29T10:36:54;28.30;84.30
21830;DHT22;11077;50.264;6.798;2022-07-29T10:39:48;28.20;83.70
21830;DHT22;11077;50.264;6.798;2022-07-29T10:42:40;28.40;84.10
21830;DHT22;11077;50.264;6.798;2022-07-29T10:45:26;28.40;83.40
21830;DHT22;11077;50.264;6.798;2022-07-29T10:48:03;28.30;81.70
21830;DHT22;11077;50.264;6.798;2022-07-29T10:50:57;28.20;84.30
21830;DHT22;11077;50.264;6.798;2022-07-29T10:53:49;28.40;85.70
21830;DHT22;11077;50.264;6.798;2022-07-29T10:56:27;28.80;83.90
21830;DHT22;11077;50.264;6.798;2022-07-29T10:59:24;29.10;82.90
21830;DHT22;11077;50.264;6.798;2022-07-29T11:02:00;29.30;81.70
21830;DHT22;11077;50.264;6.798;2022-07-29T11:04:59;29.40;81.00
21830;DHT22;11077;50.264;6.798;2022-07-29T11:07:30;29.40;79.50
21830;DHT22;11077;50.264;6.798;2022-07-29T11:10:19;29.10;80.20
21830;DHT22;11077;50.264;6.798;2022-07-29T11:12:51;29.10;80.70
21830;DHT22;11077;50.264;6.798;2022-07-29T11:15:24;28.40;80.00
21830;DHT22;11077;50.264;6.798;2022-07-29T11:21:36;27.90;82.20
21830;DHT22;11077;50.264;6.798;2022-07-29T11:24:11;27.40;81.40
21830;DHT22;11077;50.264;6.798;2022-07-29T11:26:39;26.80;83.20
21830;DHT22;11077;50.264;6.798;2022-07-29T11:29:23;26.80;84.00
21830;DHT22;11077;50.264;6.798;2022-07-29T11:32:12;26.80;84.60
21830;DHT22;11077;50.264;6.798;2022-07-29T11:34:44;26.80;84.40
21830;DHT22;11077;50.264;6.798;2022-07-29T11:37:22;27.00;83.80
21830;DHT22;11077;50.264;6.798;2022-07-29T11:40:12;27.30;83.20
21830;DHT22;11077;50.264;6.798;2022-07-29T11:42:48;27.50;83.00
21830;DHT22;11077;50.264;6.798;2022-07-29T11:45:22;27.60;82.90
21830;DHT22;11077;50.264;6.798;2022-07-29T11:47:56;27.60;82.20
21830;DHT22;11077;50.264;6.798;2022-07-29T11:50:36;27.60;82.00
21830;DHT22;11077;50.264;6.798;2022-07-29T11:53:14;27.40;82.10
21830;DHT22;11077;50.264;6.798;2022-07-29T11:55:45;27.40;82.90
21830;DHT22;11077;50.264;6.798;2022-07-29T11:58:39;27.40;83.20
21830;DHT22;11077;50.264;6.798;2022-07-29T12:01:06;27.50;82.60
21830;DHT22;11077;50.264;6.798;2022-07-29T12:03:33;27.40;82.00
21830;DHT22;11077;50.264;6.798;2022-07-29T12:06:01;27.40;83.10
21830;DHT22;11077;50.264;6.798;2022-07-29T12:08:29;27.40;82.80
21830;DHT22;11077;50.264;6.798;2022-07-29T12:10:57;27.40;83.10
21830;DHT22;11077;50.264;6.798;2022-07-29T12:16:13;27.60;82.50
21830;DHT22;11077;50.264;6.798;2022-07-29T12:18:40;27.70;82.30
21830;DHT22;11077;50.264;6.798;2022-07-29T12:21:11;27.80;82.20
21830;DHT22;11077;50.264;6.798;2022-07-29T12:23:52;28.00;82.80
21830;DHT22;11077;50.264;6.798;2022-07-29T12:26:20;27.90;82.20
21830;DHT22;11077;50.264;6.798;2022-07-29T12:29:14;28.00;82.60
21830;DHT22;11077;50.264;6.798;2022-07-29T12:31:44;28.30;81.40
21830;DHT22;11077;50.264;6.798;2022-07-29T12:34:13;28.20;80.40
21830;DHT22;11077;50.264;6.798;2022-07-29T12:36:48;28.20;80.50
21830;DHT22;11077;50.264;6.798;2022-07-29T12:39:20;28.10;80.30
21830;DHT22;11077;50.264;6.798;2022-07-29T12:41:50;27.90;80.30
21830;DHT22;11077;50.264;6.798;2022-07-29T12:44:18;27.80;81.00
21830;DHT22;11077;50.264;6.798;2022-07-29T12:47:01;27.60;80.90
21830;DHT22;11077;50.264;6.798;2022-07-29T12:49:29;27.40;81.00
21830;DHT22;11077;50.264;6.798;2022-07-29T12:51:56;27.00;81.60
21830;DHT22;11077;50.264;6.798;2022-07-29T12:54:24;26.90;82.60
21830;DHT22;11077;50.264;6.798;2022-07-29T12:56:58;26.60;83.30
21830;DHT22;11077;50.264;6.798;2022-07-29T12:59:26;26.60;83.70
21830;DHT22;11077;50.264;6.798;2022-07-29T13:01:55;26.50;83.40
21830;DHT22;11077;50.264;6.798;2022-07-29T13:04:26;26.40;84.00
21830;DHT22;11077;50.264;6.798;2022-07-29T13:06:59;26.30;84.40
21830;DHT22;11077;50.264;6.798;2022-07-29T13:09:37;26.30;84.50
21830;DHT22;11077;50.264;6.798;2022-07-29T13:12:07;26.30;85.20
21830;DHT22;11077;50.264;6.798;2022-07-29T13:14:38;26.30;85.20
21830;DHT22;11077;50.264;6.798;2022-07-29T13:17:09;26.40;85.60
21830;DHT22;11077;50.264;6.798;2022-07-29T13:19:38;26.40;84.60
21830;DHT22;11077;50.264;6.798;2022-07-29T13:22:07;26.50;84.60
21830;DHT22;11077;50.264;6.798;2022-07-29T13:24:44;26.60;85.60
21830;DHT22;11077;50.264;6.798;2022-07-29T13:27:12;26.70;85.50
21830;DHT22;11077;50.264;6.798;2022-07-29T13:29:40;26.80;84.90
21830;DHT22;11077;50.264;6.798;2022-07-29T13:32:09;26.80;84.00
21830;DHT22;11077;50.264;6.798;2022-07-29T13:34:43;26.80;84.90
21830;DHT22;11077;50.264;6.798;2022-07-29T13:37:18;26.90;85.00
21830;DHT22;11077;50.264;6.798;2022-07-29T13:39:52;26.90;83.80
21830;DHT22;11077;50.264;6.798;2022-07-29T13:42:23;26.90;83.70
21830;DHT22;11077;50.264;6.798;2022-07-29T13:44:51;26.70;83.40
21830;DHT22;11077;50.264;6.798;2022-07-29T13:47:21;26.50;84.40
21830;DHT22;11077;50.264;6.798;2022-07-29T13:49:49;26.40;84.50
21830;DHT22;11077;50.264;6.798;2022-07-29T13:52:17;26.10;84.30
21830;DHT22;11077;50.264;6.798;2022-07-29T13:54:45;26.10;85.30
21830;DHT22;11077;50.264;6.798;2022-07-29T13:57:13;26.20;86.00
21830;DHT22;11077;50.264;6.798;2022-07-29T13:59:41;26.20;86.20
21830;DHT22;11077;50.264;6.798;2022-07-29T14:02:10;26.20;85.50
21830;DHT22;11077;50.264;6.798;2022-07-29T14:04:39;26.20;85.90
21830;DHT22;11077;50.264;6.798;2022-07-29T14:07:06;26.30;86.20
21830;DHT22;11077;50.264;6.798;2022-07-29T14:09:34;26.40;85.10
21830;DHT22;11077;50.264;6.798;2022-07-29T14:12:02;26.50;85.50
21830;DHT22;11077;50.264;6.798;2022-07-29T14:14:29;26.50;84.70
21830;DHT22;11077;50.264;6.798;2022-07-29T14:17:02;26.40;84.20
21830;DHT22;11077;50.264;6.798;2022-07-29T14:19:32;26.20;84.30
21830;DHT22;11077;50.264;6.798;2022-07-29T14:22:07;26.10;84.70
21830;DHT22;11077;50.264;6.798;2022-07-29T14:24:37;25.90;84.90
21830;DHT22;11077;50.264;6.798;2022-07-29T14:27:11;25.80;85.20
21830;DHT22;11077;50.264;6.798;2022-07-29T14:29:49;25.80;85.60
21830;DHT22;11077;50.264;6.798;2022-07-29T14:32:16;25.80;85.20
21830;DHT22;11077;50.264;6.798;2022-07-29T14:34:44;25.70;85.90
21830;DHT22;11077;50.264;6.798;2022-07-29T14:37:13;25.70;86.10
21830;DHT22;11077;50.264;6.798;2022-07-29T14:39:41;25.70;86.20
21830;DHT22;11077;50.264;6.798;2022-07-29T14:42:09;25.70;86.50
21830;DHT22;11077;50.264;6.798;2022-07-29T14:44:36;25.70;85.40
21830;DHT22;11077;50.264;6.798;2022-07-29T14:47:04;25.60;85.70
21830;DHT22;11077;50.264;6.798;2022-07-29T14:49:32;25.40;85.60
21830;DHT22;11077;50.264;6.798;2022-07-29T14:52:01;25.20;86.40
21830;DHT22;11077;50.264;6.798;2022-07-29T14:54:39;25.10;87.40
21830;DHT22;11077;50.264;6.798;2022-07-29T14:57:07;25.00;88.20
21830;DHT22;11077;50.264;6.798;2022-07-29T14:59:34;25.00;88.50
21830;DHT22;11077;50.264;6.798;2022-07-29T15:02:02;24.90;88.70
21830;DHT22;11077;50.264;6.798;2022-07-29T15:04:31;24.80;89.10
21830;DHT22;11077;50.264;6.798;2022-07-29T15:07:05;24.70;89.40
21830;DHT22;11077;50.264;6.798;2022-07-29T15:09:34;24.80;89.80
21830;DHT22;11077;50.264;6.798;2022-07-29T15:12:04;24.90;90.60
21830;DHT22;11077;50.264;6.798;2022-07-29T15:14:31;25.10;90.50
21830;DHT22;11077;50.264;6.798;2022-07-29T15:16:59;25.40;89.30
21830;DHT22;11077;50.264;6.798;2022-07-29T15:19:27;25.50;88.80
21830;DHT22;11077;50.264;6.798;2022-07-29T15:21:58;25.80;88.40
21830;DHT22;11077;50.264;6.798;2022-07-29T15:24:25;25.90;88.20
21830;DHT22;11077;50.264;6.798;2022-07-29T15:26:53;26.00;87.50
21830;DHT22;11077;50.264;6.798;2022-07-29T15:29:22;26.00;87.20
21830;DHT22;11077;50.264;6.798;2022-07-29T15:31:49;25.90;87.00
21830;DHT22;11077;50.264;6.798;2022-07-29T15:34:17;25.80;87.20
21830;DHT22;11077;50.264;6.798;2022-07-29T15:36:49;25.80;86.60
21830;DHT22;11077;50.264;6.798;2022-07-29T15:39:17;25.70;87.60
21830;DHT22;11077;50.264;6.798;2022-07-29T15:41:44;25.50;87.20
21830;DHT22;11077;50.264;6.798;2022-07-29T15:44:12;25.10;88.10
21830;DHT22;11077;50.264;6.798;2022-07-29T15:46:41;24.80;88.90
21830;DHT22;11077;50.264;6.798;2022-07-29T15:49:26;24.50;89.50
21830;DHT22;11077;50.264;6.798;2022-07-29T15:51:58;24.30;90.10
21830;DHT22;11077;50.264;6.798;2022-07-29T15:54:27;24.10;90.30
21830;DHT22;11077;50.264;6.798;2022-07-29T15:56:55;24.00;90.50
21830;DHT22;11077;50.264;6.798;2022-07-29T15:59:23;23.90;90.60
21830;DHT22;11077;50.264;6.798;2022-07-29T16:01:53;23.90;90.90
21830;DHT22;11077;50.264;6.798;2022-07-29T16:04:21;23.70;91.10
21830;DHT22;11077;50.264;6.798;2022-07-29T16:06:49;23.70;91.10
21830;DHT22;11077;50.264;6.798;2022-07-29T16:09:18;23.50;91.30